createdAt,value
2018-04-19T00:00:34.277Z,6.87
2018-04-19T00:03:08.949Z,5.93
2018-04-19T00:05:43.327Z,7.07
2018-04-19T00:08:17.692Z,6.53
2018-04-19T00:10:52.221Z,7.80
2018-04-19T00:13:26.645Z,8.23
2018-04-19T00:16:00.984Z,7.00
2018-04-19T00:18:35.462Z,7.93
2018-04-19T00:21:10.661Z,8.00
2018-04-19T00:23:45.060Z,7.90
2018-04-19T00:26:19.558Z,4.77
2018-04-19T00:28:54.172Z,7.83
2018-04-19T00:31:28.708Z,6.43
2018-04-19T00:34:03.034Z,7.33
2018-04-19T00:36:37.384Z,5.90
2018-04-19T00:39:11.720Z,7.80
2018-04-19T00:41:46.210Z,8.03
2018-04-19T00:44:20.693Z,7.10
2018-04-19T00:46:55.216Z,7.13
2018-04-19T00:49:29.555Z,6.63
2018-04-19T00:52:04.132Z,7.00
2018-04-19T00:54:38.582Z,5.53
2018-04-19T00:57:13.001Z,6.83
2018-04-19T00:59:47.301Z,8.37
2018-04-19T01:02:21.616Z,7.70
2018-04-19T01:04:55.973Z,5.67
2018-04-19T01:07:30.280Z,5.67
2018-04-19T01:10:04.620Z,8.37
2018-04-19T01:12:39.017Z,6.43
2018-04-19T01:15:13.431Z,6.10
2018-04-19T01:17:47.856Z,6.10
2018-04-19T01:20:22.193Z,6.93
2018-04-19T01:22:56.508Z,8.23
2018-04-19T01:25:31.720Z,7.67
2018-04-19T01:28:06.201Z,7.67
2018-04-19T01:30:40.633Z,5.50
2018-04-19T01:33:15.032Z,6.20
2018-04-19T01:36:01.269Z,5.57
2018-04-19T01:38:35.705Z,5.53
2018-04-19T01:41:11.657Z,7.30
2018-04-19T01:43:46.087Z,4.90
2018-04-19T01:46:20.480Z,5.57
2018-04-19T01:48:54.899Z,5.73
2018-04-19T01:51:29.379Z,6.07
2018-04-19T01:54:04.067Z,5.97
2018-04-19T01:56:38.356Z,19.27
2018-04-19T01:59:12.619Z,5.30
2018-04-19T02:01:47.222Z,5.50
2018-04-19T02:04:21.653Z,6.43
2018-04-19T02:06:56.152Z,6.13
2018-04-19T02:09:30.495Z,6.50
2018-04-19T02:12:04.900Z,6.33
2018-04-19T02:14:39.325Z,5.93
2018-04-19T02:17:13.853Z,5.17
2018-04-19T02:19:48.168Z,6.13
2018-04-19T02:22:22.585Z,6.97
2018-04-19T02:24:56.937Z,5.97
2018-04-19T02:27:32.029Z,9.93
2018-04-19T02:30:06.509Z,5.17
2018-04-19T02:32:40.866Z,5.83
2018-04-19T02:35:15.912Z,3.97
2018-04-19T02:37:51.156Z,4.73
2018-04-19T02:40:25.669Z,4.23
2018-04-19T02:43:00.099Z,6.37
2018-04-19T02:45:34.855Z,4.57
2018-04-19T02:48:09.181Z,6.03
2018-04-19T02:50:43.701Z,5.30
2018-04-19T02:53:18.117Z,5.30
2018-04-19T02:55:52.690Z,4.70
2018-04-19T02:58:27.131Z,5.23
2018-04-19T03:01:01.680Z,5.77
2018-04-19T03:03:36.814Z,4.80
2018-04-19T03:06:11.423Z,4.40
2018-04-19T03:08:45.730Z,6.67
2018-04-19T03:11:20.049Z,4.30
2018-04-19T03:13:54.384Z,6.20
2018-04-19T03:16:28.800Z,9.27
2018-04-19T03:19:03.126Z,5.13
2018-04-19T03:21:37.404Z,5.80
2018-04-19T03:24:11.717Z,5.07
2018-04-19T03:26:46.011Z,4.43
2018-04-19T03:29:20.400Z,4.13
2018-04-19T03:31:54.811Z,4.37
2018-04-19T03:34:29.235Z,4.10
2018-04-19T03:37:03.777Z,5.03
2018-04-19T03:39:38.227Z,5.57
2018-04-19T03:42:12.565Z,6.30
2018-04-19T03:47:27.482Z,5.50
2018-04-19T03:50:01.859Z,4.87
2018-04-19T03:52:37.130Z,5.53
2018-04-19T03:55:11.449Z,7.40
2018-04-19T03:57:46.790Z,4.57
2018-04-19T04:00:21.159Z,5.77
2018-04-19T04:02:55.461Z,9.67
2018-04-19T04:05:29.798Z,7.30
2018-04-19T04:08:04.069Z,7.43
2018-04-19T04:10:38.628Z,10.53
2018-04-19T04:13:13.013Z,7.93
2018-04-19T04:15:47.545Z,7.87
2018-04-19T04:18:33.969Z,8.63
2018-04-19T04:21:18.204Z,12.60
2018-04-19T04:23:53.590Z,8.90
2018-04-19T04:26:27.865Z,7.97
2018-04-19T04:29:02.166Z,8.93
2018-04-19T04:31:37.093Z,8.90
2018-04-19T04:34:11.640Z,12.53
2018-04-19T04:36:46.276Z,9.33
2018-04-19T04:39:20.907Z,12.37
2018-04-19T04:41:55.300Z,12.07
2018-04-19T04:44:29.612Z,11.37
2018-04-19T04:47:03.952Z,14.87
2018-04-19T04:49:38.265Z,10.07
2018-04-19T04:52:12.561Z,13.13
2018-04-19T04:54:46.948Z,11.83
2018-04-19T04:57:21.226Z,10.33
2018-04-19T04:59:55.656Z,11.63
2018-04-19T05:02:31.393Z,12.73
2018-04-19T05:05:05.777Z,10.63
2018-04-19T05:07:40.177Z,11.17
2018-04-19T05:10:14.502Z,11.57
2018-04-19T05:12:49.074Z,8.80
2018-04-19T05:15:23.700Z,12.73
2018-04-19T05:17:58.192Z,9.70
2018-04-19T05:20:33.956Z,11.77
2018-04-19T05:23:08.506Z,9.37
2018-04-19T05:25:42.898Z,8.67
2018-04-19T05:28:18.157Z,9.37
2018-04-19T05:30:52.550Z,12.13
2018-04-19T05:33:26.981Z,9.57
2018-04-19T05:36:01.474Z,10.17
2018-04-19T05:38:35.824Z,8.40
2018-04-19T05:41:10.181Z,9.93
2018-04-19T05:43:44.617Z,13.07
2018-04-19T05:46:19.329Z,8.60
2018-04-19T05:48:53.606Z,8.43
2018-04-19T05:51:27.920Z,8.07
2018-04-19T05:54:02.679Z,10.73
2018-04-19T05:56:37.001Z,10.40
2018-04-19T05:59:12.200Z,8.33
2018-04-19T06:01:46.661Z,17.70
2018-04-19T06:04:21.287Z,18.43
2018-04-19T06:06:55.791Z,18.77
2018-04-19T06:09:30.100Z,16.00
2018-04-19T06:12:05.240Z,19.17
2018-04-19T06:14:40.398Z,21.77
2018-04-19T06:17:14.816Z,17.40
2018-04-19T06:19:49.253Z,15.77
2018-04-19T06:22:23.670Z,21.70
2018-04-19T06:24:57.991Z,17.73
2018-04-19T06:27:32.342Z,14.27
2018-04-19T06:30:06.661Z,17.00
2018-04-19T06:32:42.757Z,15.03
2018-04-19T06:35:17.299Z,15.67
2018-04-19T06:37:51.710Z,18.20
2018-04-19T06:40:26.963Z,14.20
2018-04-19T06:43:02.081Z,13.10
2018-04-19T06:45:36.735Z,20.50
2018-04-19T06:48:11.145Z,13.03
2018-04-19T06:50:45.588Z,17.37
2018-04-19T06:53:19.840Z,17.87
2018-04-19T06:55:54.307Z,11.43
2018-04-19T06:58:28.598Z,15.27
2018-04-19T07:01:03.161Z,15.40
2018-04-19T07:03:37.588Z,15.70
2018-04-19T07:06:12.116Z,17.00
2018-04-19T07:08:46.490Z,15.47
2018-04-19T07:11:20.828Z,16.77
2018-04-19T07:13:55.090Z,19.10
2018-04-19T07:16:29.456Z,18.10
2018-04-19T07:19:03.851Z,17.13
2018-04-19T07:21:38.255Z,15.07
2018-04-19T07:24:13.444Z,13.63
2018-04-19T07:26:47.891Z,17.60
2018-04-19T07:29:22.296Z,13.70
2018-04-19T07:31:56.640Z,18.03
2018-04-19T07:34:31.236Z,15.63
2018-04-19T07:37:05.661Z,15.77
2018-04-19T07:39:40.011Z,17.57
2018-04-19T07:42:14.504Z,14.03
2018-04-19T07:44:50.328Z,14.20
2018-04-19T07:47:24.875Z,15.07
2018-04-19T07:49:59.281Z,16.07
2018-04-19T07:52:33.883Z,18.67
2018-04-19T07:55:08.360Z,20.37
2018-04-19T07:57:42.631Z,13.80
2018-04-19T08:00:16.948Z,11.73
2018-04-19T08:02:51.250Z,13.13
2018-04-19T08:05:26.438Z,10.50
2018-04-19T08:08:00.959Z,14.83
2018-04-19T08:10:35.352Z,10.83
2018-04-19T08:13:09.708Z,15.60
2018-04-19T08:15:44.097Z,11.00
2018-04-19T08:18:18.852Z,9.40
2018-04-19T08:20:53.356Z,13.50
2018-04-19T08:23:28.604Z,11.87
2018-04-19T08:26:03.428Z,9.37
2018-04-19T08:28:37.729Z,12.10
2018-04-19T08:31:12.380Z,9.73
2018-04-19T08:33:46.725Z,13.13
2018-04-19T08:36:21.210Z,13.20
2018-04-19T08:38:55.759Z,10.07
2018-04-19T08:41:30.348Z,9.93
2018-04-19T08:44:04.763Z,6.13
2018-04-19T08:46:39.227Z,7.43
2018-04-19T08:49:13.669Z,7.43
2018-04-19T08:51:48.026Z,6.97
2018-04-19T08:54:22.499Z,7.80
2018-04-19T08:56:57.010Z,7.13
2018-04-19T08:59:31.340Z,9.73
2018-04-19T09:02:05.852Z,6.33
2018-04-19T09:04:40.257Z,6.50
2018-04-19T09:07:14.677Z,5.07
2018-04-19T09:09:48.956Z,10.93
2018-04-19T09:12:24.005Z,6.10
2018-04-19T09:14:58.356Z,7.07
2018-04-19T09:17:32.921Z,7.83
2018-04-19T09:20:08.232Z,8.60
2018-04-19T09:22:43.532Z,8.73
2018-04-19T09:25:17.816Z,6.37
2018-04-19T09:27:52.318Z,7.37
2018-04-19T09:30:26.608Z,8.30
2018-04-19T09:33:01.043Z,8.03
2018-04-19T09:35:36.280Z,7.17
2018-04-19T09:38:10.798Z,8.67
2018-04-19T09:40:45.104Z,6.17
2018-04-19T09:43:19.596Z,7.10
2018-04-19T09:45:54.167Z,7.03
2018-04-19T09:48:28.592Z,9.23
2018-04-19T09:51:03.077Z,5.40
2018-04-19T09:53:37.440Z,8.00
2018-04-19T09:56:12.073Z,8.40
2018-04-19T10:01:42.415Z,6.53
2018-04-19T10:04:16.726Z,5.30
2018-04-19T10:06:51.028Z,5.67
2018-04-19T10:09:25.546Z,8.47
2018-04-19T10:11:59.792Z,8.83
2018-04-19T10:14:34.190Z,6.60
2018-04-19T10:17:08.714Z,7.33
2018-04-19T10:19:43.108Z,6.20
2018-04-19T10:22:17.433Z,7.00
2018-04-19T10:24:52.589Z,7.13
2018-04-19T10:27:26.935Z,4.83
2018-04-19T10:30:02.746Z,4.47
2018-04-19T10:32:37.908Z,7.37
2018-04-19T10:35:12.326Z,6.40
2018-04-19T10:37:47.538Z,6.53
2018-04-19T10:40:21.789Z,5.90
2018-04-19T10:42:56.201Z,8.60
2018-04-19T10:45:30.577Z,4.47
2018-04-19T10:48:05.038Z,5.07
2018-04-19T10:50:40.292Z,3.53
2018-04-19T10:53:14.579Z,5.90
2018-04-19T10:55:49.016Z,3.77
2018-04-19T10:58:23.521Z,4.80
2018-04-19T11:00:58.215Z,3.43
2018-04-19T11:03:32.577Z,5.10
2018-04-19T11:06:06.997Z,3.93
2018-04-19T11:08:41.277Z,6.97
2018-04-19T11:11:15.636Z,4.83
2018-04-19T11:13:50.083Z,5.30
2018-04-19T11:16:24.562Z,3.73
2018-04-19T11:18:58.884Z,3.53
2018-04-19T11:21:33.277Z,5.20
2018-04-19T11:24:07.720Z,4.13
2018-04-19T11:26:42.178Z,7.87
2018-04-19T11:29:16.630Z,3.50
2018-04-19T11:31:52.454Z,9.03
2018-04-19T11:34:27.044Z,7.07
2018-04-19T11:37:01.487Z,5.57
2018-04-19T11:39:35.837Z,7.23
2018-04-19T11:42:10.360Z,5.50
2018-04-19T11:44:44.759Z,9.37
2018-04-19T11:47:19.957Z,5.03
2018-04-19T11:49:54.475Z,4.97
2018-04-19T11:52:29.612Z,8.07
2018-04-19T11:55:03.990Z,5.37
2018-04-19T11:57:38.493Z,4.73
2018-04-19T12:00:12.800Z,6.53
2018-04-19T12:02:47.444Z,4.17
2018-04-19T12:05:23.395Z,4.53
2018-04-19T12:07:57.873Z,6.40
2018-04-19T12:10:32.242Z,6.57
2018-04-19T12:13:06.692Z,5.90
2018-04-19T12:15:40.959Z,8.03
2018-04-19T12:18:15.337Z,4.63
2018-04-19T12:20:49.810Z,6.00
2018-04-19T12:23:24.253Z,4.53
2018-04-19T12:25:58.647Z,9.63
2018-04-19T12:28:33.003Z,3.73
2018-04-19T12:31:07.422Z,5.00
2018-04-19T12:33:41.716Z,8.23
2018-04-19T12:36:16.147Z,8.23
2018-04-19T12:38:50.395Z,8.77
2018-04-19T12:41:24.815Z,4.70
2018-04-19T12:43:59.094Z,8.07
2018-04-19T12:46:33.420Z,6.43
2018-04-19T12:49:07.740Z,5.63
2018-04-19T12:51:42.250Z,7.77
2018-04-19T12:54:16.700Z,5.97
2018-04-19T12:56:51.297Z,7.33
2018-04-19T12:59:25.658Z,9.67
2018-04-19T13:01:59.976Z,11.53
2018-04-19T13:04:35.281Z,4.27
2018-04-19T13:07:09.600Z,7.63
2018-04-19T13:09:44.063Z,6.47
2018-04-19T13:12:18.551Z,7.77
2018-04-19T13:14:52.800Z,9.43
2018-04-19T13:17:27.053Z,5.43
2018-04-19T13:20:01.396Z,9.43
2018-04-19T13:22:35.710Z,12.07
2018-04-19T13:25:10.043Z,7.27
2018-04-19T13:27:44.330Z,5.80
2018-04-19T13:30:18.865Z,9.30
2018-04-19T13:32:53.332Z,6.60
2018-04-19T13:35:28.605Z,6.53
2018-04-19T13:38:03.060Z,4.73
2018-04-19T13:40:37.521Z,7.70
2018-04-19T13:43:11.837Z,7.30
2018-04-19T13:45:46.199Z,8.10
2018-04-19T13:48:20.678Z,7.20
2018-04-19T13:50:55.140Z,5.17
2018-04-19T13:53:30.271Z,4.63
2018-04-19T13:56:05.309Z,6.83
2018-04-19T13:58:39.642Z,3.60
2018-04-19T14:01:14.071Z,7.30
2018-04-19T14:03:48.372Z,4.67
2018-04-19T14:06:24.216Z,4.60
2018-04-19T14:08:58.654Z,4.50
2018-04-19T14:11:33.181Z,3.43
2018-04-19T14:14:07.498Z,3.83
2018-04-19T14:16:41.945Z,4.83
2018-04-19T14:19:16.372Z,4.90
2018-04-19T14:21:50.743Z,4.17
2018-04-19T14:24:25.177Z,5.03
2018-04-19T14:26:59.723Z,3.97
2018-04-19T14:29:34.938Z,2.70
2018-04-19T14:32:09.289Z,3.50
2018-04-19T14:34:43.786Z,4.40
2018-04-19T14:37:18.199Z,4.67
2018-04-19T14:39:52.475Z,5.20
2018-04-19T14:42:26.796Z,5.40
2018-04-19T14:45:01.373Z,3.53
2018-04-19T14:47:35.896Z,8.60
2018-04-19T14:50:10.222Z,5.20
2018-04-19T14:52:44.529Z,3.77
2018-04-19T14:55:18.965Z,4.33
2018-04-19T14:57:53.690Z,2.37
2018-04-19T15:00:28.088Z,3.60
2018-04-19T15:03:02.433Z,3.57
2018-04-19T15:05:36.976Z,3.40
2018-04-19T15:08:11.272Z,5.43
2018-04-19T15:10:45.695Z,2.57
2018-04-19T15:13:20.199Z,3.37
2018-04-19T15:15:54.549Z,3.53
2018-04-19T15:18:30.356Z,4.87
2018-04-19T15:21:04.677Z,3.23
2018-04-19T15:23:39.128Z,4.43
2018-04-19T15:26:13.446Z,2.53
2018-04-19T15:28:47.765Z,4.40
2018-04-19T15:31:22.037Z,2.10
2018-04-19T15:33:57.194Z,3.23
2018-04-19T15:36:31.592Z,4.87
2018-04-19T15:39:05.948Z,2.43
2018-04-19T15:41:40.413Z,4.17
2018-04-19T15:44:14.790Z,8.83
2018-04-19T15:46:49.141Z,4.50
2018-04-19T15:49:23.529Z,3.80
2018-04-19T15:51:58.008Z,2.37
2018-04-19T15:54:32.409Z,3.23
2018-04-19T15:57:06.839Z,6.17
2018-04-19T15:59:41.090Z,3.17
2018-04-19T16:02:16.271Z,3.73
2018-04-19T16:04:50.664Z,4.00
2018-04-19T16:07:25.106Z,3.73
2018-04-19T16:09:59.397Z,5.10
2018-04-19T16:12:33.865Z,3.93
2018-04-19T16:15:08.386Z,4.50
2018-04-19T16:17:42.650Z,3.20
2018-04-19T16:20:17.087Z,3.67
2018-04-19T16:22:51.597Z,1.93
2018-04-19T16:25:26.072Z,5.10
2018-04-19T16:28:00.453Z,5.13
2018-04-19T16:30:34.925Z,2.80
2018-04-19T16:33:09.384Z,4.03
2018-04-19T16:35:43.706Z,3.17
2018-04-19T16:38:18.031Z,4.27
2018-04-19T16:40:52.668Z,3.50
2018-04-19T16:43:28.002Z,3.80
2018-04-19T16:46:02.273Z,6.57
2018-04-19T16:48:36.684Z,7.77
2018-04-19T16:51:11.041Z,3.17
2018-04-19T16:53:45.360Z,5.87
2018-04-19T16:56:19.669Z,5.83
2018-04-19T16:58:54.258Z,3.53
2018-04-19T17:01:28.617Z,4.10
2018-04-19T17:04:02.966Z,6.57
2018-04-19T17:06:37.348Z,7.57
2018-04-19T17:09:11.661Z,3.53
2018-04-19T17:11:46.208Z,5.20
2018-04-19T17:14:20.669Z,4.87
2018-04-19T17:16:54.945Z,8.73
2018-04-19T17:19:29.317Z,7.53
2018-04-19T17:22:03.653Z,6.50
2018-04-19T17:24:38.809Z,8.90
2018-04-19T17:27:14.668Z,6.20
2018-04-19T17:29:49.132Z,6.73
2018-04-19T17:32:23.416Z,7.27
2018-04-19T17:34:57.790Z,7.83
2018-04-19T17:37:32.117Z,7.87
2018-04-19T17:40:06.607Z,6.47
2018-04-19T17:42:41.728Z,5.27
2018-04-19T17:45:16.109Z,3.60
2018-04-19T17:47:50.378Z,5.37
2018-04-19T17:50:24.712Z,4.63
2018-04-19T17:52:59.188Z,5.00
2018-04-19T17:55:33.604Z,5.83
2018-04-19T17:58:08.159Z,7.37
2018-04-19T18:00:42.609Z,8.13
2018-04-19T18:03:17.705Z,4.90
2018-04-19T18:05:52.971Z,3.70
2018-04-19T18:08:27.365Z,3.63
2018-04-19T18:11:01.782Z,4.60
2018-04-19T18:13:36.917Z,4.37
2018-04-19T18:16:11.424Z,4.67
2018-04-19T18:18:45.840Z,4.50
2018-04-19T18:21:20.188Z,4.13
2018-04-19T18:23:54.558Z,4.37
2018-04-19T18:26:28.780Z,3.97
2018-04-19T18:29:03.820Z,6.40
2018-04-19T18:31:38.876Z,4.27
2018-04-19T18:34:13.513Z,4.13
2018-04-19T18:36:47.775Z,3.57
2018-04-19T18:39:22.349Z,4.00
2018-04-19T18:41:56.980Z,6.57
2018-04-19T18:44:31.300Z,6.33
2018-04-19T18:47:05.644Z,5.87
2018-04-19T18:49:40.160Z,4.70
2018-04-19T18:52:14.521Z,4.00
2018-04-19T18:54:48.981Z,5.70
2018-04-19T18:57:23.245Z,2.93
2018-04-19T18:59:57.833Z,4.40
2018-04-19T19:02:32.228Z,3.30
2018-04-19T19:05:06.705Z,5.73
2018-04-19T19:07:41.277Z,6.90
2018-04-19T19:10:15.704Z,3.10
2018-04-19T19:12:50.232Z,5.03
2018-04-19T19:18:44.544Z,10.07
2018-04-19T19:21:18.981Z,9.97
2018-04-19T19:23:54.091Z,5.37
2018-04-19T19:26:28.617Z,6.63
2018-04-19T19:29:03.215Z,12.60
2018-04-19T19:31:38.380Z,12.23
2018-04-19T19:34:12.817Z,14.53
2018-04-19T19:36:47.272Z,8.87
2018-04-19T19:39:21.593Z,7.73
2018-04-19T19:41:55.930Z,7.93
2018-04-19T19:44:30.324Z,8.37
2018-04-19T19:47:05.106Z,4.70
2018-04-19T19:49:39.492Z,4.83
2018-04-19T19:52:14.568Z,5.60
2018-04-19T19:54:49.000Z,4.13
2018-04-19T19:57:23.478Z,3.13
2018-04-19T19:59:57.798Z,8.00
2018-04-19T20:02:32.148Z,3.97
2018-04-19T20:05:06.504Z,5.17
2018-04-19T20:07:40.789Z,6.00
2018-04-19T20:10:15.238Z,5.47
2018-04-19T20:12:49.582Z,5.83
2018-04-19T20:15:24.038Z,5.37
2018-04-19T20:17:58.363Z,5.97
2018-04-19T20:20:32.774Z,6.10
2018-04-19T20:23:07.260Z,2.50
2018-04-19T20:25:42.341Z,4.63
2018-04-19T20:28:16.772Z,3.83
2018-04-19T20:30:51.080Z,2.73
2018-04-19T20:33:25.621Z,8.60
2018-04-19T20:35:59.897Z,2.93
2018-04-19T20:38:35.900Z,5.33
2018-04-19T20:41:10.257Z,3.50
2018-04-19T20:43:44.750Z,4.30
2018-04-19T20:46:19.157Z,3.70
2018-04-19T20:48:53.487Z,2.43
2018-04-19T20:51:27.838Z,2.90
2018-04-19T20:54:02.421Z,2.87
2018-04-19T20:56:36.950Z,3.20
2018-04-19T20:59:11.220Z,4.37
2018-04-19T21:01:45.589Z,2.43
2018-04-19T21:04:19.897Z,3.90
2018-04-19T21:06:54.181Z,3.33
2018-04-19T21:09:28.538Z,3.20
2018-04-19T21:12:02.828Z,2.90
2018-04-19T21:14:37.179Z,5.87
2018-04-19T21:17:11.509Z,2.80
2018-04-19T21:19:45.830Z,4.90
2018-04-19T21:22:20.247Z,3.90
2018-04-19T21:24:54.761Z,6.67
2018-04-19T21:27:29.126Z,2.73
2018-04-19T21:30:03.705Z,3.73
2018-04-19T21:32:38.000Z,5.10
2018-04-19T21:35:12.339Z,2.57
2018-04-19T21:37:46.725Z,3.70
2018-04-19T21:40:21.157Z,2.97
2018-04-19T21:42:55.660Z,3.00
2018-04-19T21:45:30.121Z,2.20
2018-04-19T21:48:04.864Z,5.77
2018-04-19T21:50:39.180Z,5.27
2018-04-19T21:53:13.688Z,3.67
2018-04-19T21:55:48.220Z,6.20
2018-04-19T21:58:22.483Z,3.53
2018-04-19T22:00:56.883Z,4.60
2018-04-19T22:03:31.200Z,3.00
2018-04-19T22:06:05.815Z,6.90
2018-04-19T22:08:41.667Z,4.60
2018-04-19T22:11:15.977Z,6.10
2018-04-19T22:13:50.545Z,6.67
2018-04-19T22:16:25.626Z,6.93
2018-04-19T22:19:00.101Z,8.60
2018-04-19T22:21:34.457Z,7.67
2018-04-19T22:24:09.693Z,9.23
2018-04-19T22:26:43.981Z,7.90
2018-04-19T22:29:18.333Z,7.37
2018-04-19T22:31:52.818Z,5.47
2018-04-19T22:34:27.950Z,12.40
2018-04-19T22:37:03.117Z,9.87
2018-04-19T22:39:37.640Z,8.63
2018-04-19T22:42:12.070Z,7.17
2018-04-19T22:44:46.432Z,7.20
2018-04-19T22:47:20.790Z,6.00
2018-04-19T22:49:55.134Z,10.00
2018-04-19T22:52:29.669Z,7.10
2018-04-19T22:55:04.198Z,10.03
2018-04-19T22:57:39.407Z,6.07
2018-04-19T23:00:13.972Z,6.33
2018-04-19T23:02:48.286Z,7.10
2018-04-19T23:05:22.736Z,11.63
2018-04-19T23:07:57.129Z,7.70
2018-04-19T23:10:31.461Z,7.17
2018-04-19T23:13:05.781Z,6.57
2018-04-19T23:15:40.077Z,9.13
2018-04-19T23:18:14.416Z,7.30
2018-04-19T23:20:48.790Z,6.57
2018-04-19T23:23:23.226Z,9.57
2018-04-19T23:25:57.657Z,5.00
2018-04-19T23:28:32.083Z,3.50
2018-04-19T23:31:06.505Z,3.87
2018-04-19T23:33:42.521Z,3.73
2018-04-19T23:36:17.811Z,7.23
2018-04-19T23:38:52.094Z,4.13
2018-04-19T23:41:26.396Z,4.97
2018-04-19T23:44:00.975Z,6.70
2018-04-19T23:46:35.282Z,4.60
2018-04-19T23:49:09.570Z,11.10
2018-04-19T23:51:44.119Z,2.83
2018-04-19T23:54:18.549Z,5.40
2018-04-19T23:56:53.052Z,2.90
2018-04-19T23:59:27.482Z,3.20
